Time;durP1;ratioP1;P1;durP2;ratioP2;P2;SDS_P1;SDS_P2;PMS_P1;PMS_P2;Temp;Humidity;BMP_temperature;BMP_pressure;BME280_temperature;BME280_humidity;BME280_pressure;Samples;Min_cycle;Max_cycle;Signal;HPM_P1;HPM_P2
2022/09/26 00:01:59;;;;;;;7.05;1.95;;;11.70;99.90;;;;;;5152758;27;20050;-74
2022/09/26 00:04:27;;;;;;;6.43;2.05;;;12.20;99.90;;;;;;5153894;27;20042;-74
2022/09/26 00:06:55;;;;;;;5.47;2.00;;;12.20;99.90;;;;;;5153658;27;20507;-74
2022/09/26 00:09:23;;;;;;;6.25;1.80;;;11.80;99.90;;;;;;5133622;27;20423;-74
2022/09/26 00:11:48;;;;;;;6.40;2.40;;;11.70;99.90;;;;;;5126850;27;20055;-74
2022/09/26 00:14:18;;;;;;;6.47;2.45;;;11.70;99.90;;;;;;5134220;27;20355;-74
2022/09/26 00:16:44;;;;;;;8.88;2.30;;;12.60;99.90;;;;;;5135178;27;20046;-74
2022/09/26 00:19:10;;;;;;;4.28;2.30;;;11.80;99.90;;;;;;5135361;27;20096;-75
2022/09/26 00:21:36;;;;;;;8.07;2.63;;;11.70;99.90;;;;;;5154227;27;20049;-74
2022/09/26 00:24:03;;;;;;;6.03;2.30;;;11.70;99.90;;;;;;5135112;27;20039;-74
2022/09/26 00:26:31;;;;;;;5.93;2.22;;;11.70;99.90;;;;;;5153508;27;20436;-74
2022/09/26 00:28:58;;;;;;;4.72;2.40;;;11.70;99.90;;;;;;5154615;27;20415;-74
2022/09/26 00:31:27;;;;;;;7.28;2.50;;;11.70;99.90;;;;;;5135658;27;20043;-74
2022/09/26 00:33:53;;;;;;;4.90;2.22;;;12.10;99.90;;;;;;5154140;27;20051;-74
2022/09/26 00:36:19;;;;;;;5.80;2.20;;;11.80;99.90;;;;;;5118282;27;20118;-74
2022/09/26 00:38:45;;;;;;;6.55;2.20;;;11.70;99.90;;;;;;5135263;27;20391;-74
2022/09/26 00:41:11;;;;;;;3.90;2.20;;;12.60;99.90;;;;;;5114586;28;20047;-75
2022/09/26 00:43:46;;;;;;;5.95;2.22;;;11.70;99.90;;;;;;5133591;28;20118;-74
2022/09/26 00:46:42;;;;;;;4.30;2.15;;;11.70;99.90;;;;;;5134362;27;20038;-74
2022/09/26 00:49:23;;;;;;;;;;;11.70;99.90;;;;;;5106180;27;20079;-74
2022/09/26 00:52:01;;;;;;;9.35;2.17;;;11.80;99.90;;;;;;5158064;27;20355;-74
2022/09/26 00:54:29;;;;;;;6.63;2.10;;;11.80;99.90;;;;;;5158324;27;20443;-74
2022/09/26 00:57:04;;;;;;;6.10;2.17;;;11.80;99.90;;;;;;5158216;27;20172;-74
2022/09/26 00:59:43;;;;;;;6.97;2.40;;;11.80;99.90;;;;;;5158548;27;20047;-74
2022/09/26 01:02:10;;;;;;;5.05;2.10;;;11.80;99.90;;;;;;5138825;27;20142;-74
2022/09/26 01:04:39;;;;;;;4.35;1.90;;;11.80;99.90;;;;;;5158630;27;20046;-74
2022/09/26 01:07:11;;;;;;;5.68;1.98;;;11.80;99.90;;;;;;5139223;27;20408;-74
2022/09/26 01:09:38;;;;;;;3.92;1.88;;;11.80;99.90;;;;;;5157854;27;20407;-74
2022/09/26 01:12:05;;;;;;;6.57;2.25;;;12.20;99.90;;;;;;5138229;27;20121;-74
2022/09/26 01:14:32;;;;;;;6.65;2.35;;;11.90;99.90;;;;;;5158041;27;20418;-74
2022/09/26 01:16:58;;;;;;;6.40;2.60;;;11.90;99.90;;;;;;5121956;27;20133;-74
2022/09/26 01:19:55;;;;;;;4.78;2.03;;;11.90;99.90;;;;;;5157535;27;20118;-74
2022/09/26 01:22:36;;;;;;;5.88;2.30;;;11.90;99.90;;;;;;5138469;27;20120;-74
2022/09/26 01:25:07;;;;;;;5.82;2.13;;;11.90;99.90;;;;;;5157347;27;20117;-74
2022/09/26 01:27:50;;;;;;;4.63;2.05;;;11.90;99.90;;;;;;5156942;27;20042;-74
2022/09/26 01:30:21;;;;;;;4.78;2.10;;;12.60;99.90;;;;;;5138106;27;20522;-74
2022/09/26 01:32:58;;;;;;;8.05;2.20;;;11.90;99.90;;;;;;5157238;27;20042;-74
2022/09/26 01:35:39;;;;;;;8.95;2.35;;;11.90;99.90;;;;;;5156715;27;20051;-74
2022/09/26 01:38:25;;;;;;;5.80;2.42;;;11.80;99.90;;;;;;5138007;27;20046;-74
2022/09/26 01:41:10;;;;;;;6.43;2.50;;;11.80;99.90;;;;;;5138048;27;20051;-75
2022/09/26 01:43:53;;;;;;;5.78;2.30;;;11.90;99.90;;;;;;5157476;27;20061;-74
2022/09/26 01:46:34;;;;;;;6.05;2.17;;;11.90;99.90;;;;;;5157231;27;20391;-75
2022/09/26 01:49:14;;;;;;;7.35;2.35;;;11.80;99.90;;;;;;5157124;27;20039;-74
2022/09/26 01:51:46;;;;;;;5.15;2.33;;;11.90;99.90;;;;;;5157163;27;20039;-74
2022/09/26 01:54:18;;;;;;;9.35;2.50;;;11.80;99.90;;;;;;5138559;27;20039;-74
2022/09/26 01:56:47;;;;;;;7.28;2.60;;;11.90;99.90;;;;;;5138233;27;20045;-74
2022/09/26 01:59:21;;;;;;;9.95;2.70;;;11.80;99.90;;;;;;5156156;27;20121;-74
2022/09/26 02:01:50;;;;;;;9.25;2.83;;;12.40;99.90;;;;;;5156936;27;20042;-74
2022/09/26 02:04:37;;;;;;;5.75;2.40;;;11.80;99.90;;;;;;5157124;27;20506;-75
2022/09/26 02:07:09;;;;;;;7.13;2.50;;;12.60;99.90;;;;;;5136935;27;20201;-74
2022/09/26 02:09:44;;;;;;;7.13;3.17;;;11.80;99.90;;;;;;5117849;27;20091;-74
2022/09/26 02:12:20;;;;;;;5.43;2.70;;;11.80;99.90;;;;;;5136053;27;20377;-74
2022/09/26 02:14:48;;;;;;;8.43;2.70;;;11.90;99.90;;;;;;5118026;27;20043;-74
2022/09/26 02:17:21;;;;;;;5.90;2.97;;;12.40;99.90;;;;;;5116505;27;20081;-74
2022/09/26 02:19:47;;;;;;;6.18;2.88;;;11.90;99.90;;;;;;5147000;27;20436;-74
2022/09/26 02:22:12;;;;;;;10.93;3.10;;;12.40;99.90;;;;;;5137476;27;20046;-74
2022/09/26 02:24:38;;;;;;;9.27;3.13;;;12.30;99.90;;;;;;5156679;27;20034;-74
2022/09/26 02:27:05;;;;;;;9.13;3.00;;;11.80;99.90;;;;;;5155842;27;20038;-74
2022/09/26 02:29:32;;;;;;;8.60;3.42;;;12.10;99.90;;;;;;5154750;27;20394;-74
2022/09/26 02:32:14;;;;;;;11.13;3.78;;;12.80;99.90;;;;;;5155775;27;20027;-74
2022/09/26 02:34:42;;;;;;;6.63;3.38;;;12.00;99.90;;;;;;5137855;27;20050;-74
2022/09/26 02:37:08;;;;;;;7.18;3.45;;;11.70;99.90;;;;;;5156227;27;20043;-74
2022/09/26 02:39:35;;;;;;;7.38;3.42;;;11.70;99.90;;;;;;5148376;27;20035;-74
2022/09/26 02:42:24;;;;;;;7.05;3.42;;;11.80;99.90;;;;;;5114059;27;20481;-74
2022/09/26 02:45:06;;;;;;;9.82;3.65;;;11.80;99.90;;;;;;5120151;27;20129;-74
2022/09/26 02:48:03;;;;;;;9.45;3.67;;;11.80;99.90;;;;;;5137329;27;20046;-74
2022/09/26 02:50:47;;;;;;;9.35;3.55;;;11.70;99.90;;;;;;5154611;27;20103;-74
2022/09/26 02:53:25;;;;;;;8.15;3.55;;;11.60;99.90;;;;;;5137016;27;20054;-74
2022/09/26 02:56:16;;;;;;;7.57;3.85;;;11.70;99.90;;;;;;5136454;27;20519;-74
2022/09/26 02:59:02;;;;;;;8.48;3.92;;;11.60;99.90;;;;;;5106488;27;20075;-74
2022/09/26 03:01:37;;;;;;;9.95;3.97;;;11.50;99.90;;;;;;5154771;27;20046;-74
2022/09/26 03:04:09;;;;;;;9.37;3.90;;;11.50;99.90;;;;;;5155745;27;20039;-74
2022/09/26 03:06:39;;;;;;;11.38;4.47;;;11.50;99.90;;;;;;5155766;27;20046;-74
2022/09/26 03:09:06;;;;;;;9.00;4.25;;;12.20;99.90;;;;;;5155188;27;20039;-74
2022/09/26 03:11:33;;;;;;;6.35;3.50;;;11.50;99.90;;;;;;5154866;27;20047;-74
2022/09/26 03:14:00;;;;;;;9.85;3.65;;;11.50;99.90;;;;;;5155743;27;20039;-74
2022/09/26 03:16:32;;;;;;;7.38;3.70;;;11.60;99.90;;;;;;5154528;27;20049;-74
2022/09/26 03:19:05;;;;;;;8.15;3.92;;;11.50;99.90;;;;;;5136583;27;20049;-74
2022/09/26 03:21:31;;;;;;;6.43;4.00;;;11.40;99.90;;;;;;5154841;27;20399;-74
2022/09/26 03:23:57;;;;;;;11.45;4.22;;;11.50;99.90;;;;;;5155109;27;20038;-74
2022/09/26 03:26:25;;;;;;;10.63;4.13;;;11.50;99.90;;;;;;5154660;27;20034;-74
2022/09/26 03:28:52;;;;;;;7.30;3.90;;;12.10;99.90;;;;;;5149040;27;20369;-75
2022/09/26 03:31:20;;;;;;;9.57;4.00;;;11.50;99.90;;;;;;5135059;27;20121;-75
2022/09/26 03:33:47;;;;;;;8.88;4.13;;;11.50;99.90;;;;;;5150372;27;20703;-75
2022/09/26 03:36:13;;;;;;;7.68;4.47;;;11.50;99.90;;;;;;5149600;27;20036;-74
2022/09/26 03:38:38;;;;;;;9.38;4.47;;;11.50;99.90;;;;;;5134108;27;20099;-75
2022/09/26 03:41:06;;;;;;;11.40;4.63;;;11.60;99.90;;;;;;5153483;27;20114;-74
2022/09/26 03:43:32;;;;;;;10.30;4.60;;;11.50;99.90;;;;;;5135935;27;20050;-74
2022/09/26 03:46:03;;;;;;;7.70;4.10;;;11.40;99.90;;;;;;5118662;27;20035;-74
2022/09/26 03:48:29;;;;;;;7.90;4.25;;;11.40;99.90;;;;;;5155359;27;20050;-74
2022/09/26 03:51:00;;;;;;;6.88;4.45;;;11.40;99.90;;;;;;5135802;27;20061;-75
2022/09/26 03:53:26;;;;;;;6.53;4.50;;;11.40;99.90;;;;;;5154643;27;20049;-74
2022/09/26 03:55:51;;;;;;;12.55;4.70;;;11.40;99.90;;;;;;5154476;27;20069;-75
2022/09/26 03:58:17;;;;;;;9.43;4.68;;;11.70;99.90;;;;;;5155048;27;20440;-74
2022/09/26 04:00:43;;;;;;;8.80;4.78;;;12.10;99.90;;;;;;5154796;27;20121;-75
2022/09/26 04:03:09;;;;;;;8.60;4.65;;;11.30;99.90;;;;;;5154842;27;20042;-75
2022/09/26 04:05:34;;;;;;;7.70;5.00;;;11.30;99.90;;;;;;5135896;27;20043;-75
2022/09/26 04:08:01;;;;;;;10.65;5.18;;;11.30;99.90;;;;;;5145130;27;20554;-75
2022/09/26 04:10:27;;;;;;;9.27;5.00;;;11.40;99.90;;;;;;5133513;27;20148;-75
2022/09/26 04:12:53;;;;;;;10.52;5.20;;;11.40;99.90;;;;;;5133942;27;20522;-75
2022/09/26 04:15:18;;;;;;;10.40;5.13;;;12.20;99.90;;;;;;5133712;27;20049;-74
2022/09/26 04:17:44;;;;;;;9.02;4.80;;;11.40;99.90;;;;;;5142651;27;20046;-75
2022/09/26 04:20:10;;;;;;;9.88;5.45;;;11.60;99.90;;;;;;5154173;27;20102;-74
2022/09/26 04:22:36;;;;;;;9.80;5.50;;;11.50;99.90;;;;;;5134169;27;20133;-74
2022/09/26 04:25:01;;;;;;;8.52;5.18;;;11.40;99.90;;;;;;5154128;27;20458;-74
2022/09/26 04:27:27;;;;;;;8.18;5.03;;;11.40;99.90;;;;;;5153958;27;20552;-74
2022/09/26 04:29:55;;;;;;;9.00;5.47;;;11.40;99.90;;;;;;5154140;27;20035;-74
2022/09/26 04:32:21;;;;;;;8.60;5.20;;;11.40;99.90;;;;;;5153892;27;20053;-75
2022/09/26 04:34:47;;;;;;;8.73;5.07;;;11.40;99.90;;;;;;5135274;27;20042;-75
2022/09/26 04:37:13;;;;;;;8.82;5.13;;;11.40;99.90;;;;;;5153363;27;20050;-75
2022/09/26 04:39:40;;;;;;;9.43;5.25;;;12.60;99.90;;;;;;5114526;28;20036;-74
2022/09/26 04:42:06;;;;;;;8.55;5.03;;;12.30;99.90;;;;;;5131049;27;20491;-74
2022/09/26 04:44:31;;;;;;;10.77;5.50;;;12.60;99.90;;;;;;5153917;27;20046;-74
2022/09/26 04:46:57;;;;;;;9.15;5.43;;;11.40;99.90;;;;;;5153436;27;20057;-75
2022/09/26 04:49:23;;;;;;;10.90;5.68;;;11.30;99.90;;;;;;5154089;27;20047;-75
2022/09/26 04:51:48;;;;;;;11.70;5.82;;;11.30;99.90;;;;;;5133873;27;20102;-75
2022/09/26 04:54:15;;;;;;;8.90;4.90;;;11.40;99.90;;;;;;5153035;27;20493;-75
2022/09/26 04:56:40;;;;;;;10.35;5.43;;;11.40;99.90;;;;;;5152997;27;20428;-75
2022/09/26 04:59:06;;;;;;;13.45;5.63;;;12.30;99.90;;;;;;5135913;27;20085;-74
2022/09/26 05:01:32;;;;;;;10.35;5.60;;;11.40;99.90;;;;;;5134691;27;20042;-74
2022/09/26 05:03:57;;;;;;;9.60;5.43;;;11.40;99.90;;;;;;5117817;27;20038;-75
2022/09/26 05:06:23;;;;;;;11.07;5.63;;;11.40;99.90;;;;;;5134657;27;20096;-77
2022/09/26 05:08:49;;;;;;;12.63;6.25;;;11.40;99.90;;;;;;5153490;27;20049;-76
2022/09/26 05:11:17;;;;;;;11.80;6.20;;;11.80;99.90;;;;;;5153097;27;20034;-76
2022/09/26 05:13:43;;;;;;;9.18;5.82;;;11.30;99.90;;;;;;5153448;27;20041;-76
2022/09/26 05:16:10;;;;;;;10.75;5.70;;;11.40;99.90;;;;;;5153130;27;20108;-76
2022/09/26 05:18:37;;;;;;;12.80;6.82;;;11.90;99.90;;;;;;5153384;27;20039;-76
2022/09/26 05:21:04;;;;;;;9.90;6.30;;;11.20;99.90;;;;;;5153233;27;20095;-76
2022/09/26 05:26:35;;;;;;;14.95;6.00;;;11.90;99.90;;;;;;5152997;27;20049;-73
2022/09/26 05:29:03;;;;;;;8.57;6.30;;;11.20;99.90;;;;;;5148233;27;20074;-73
2022/09/26 05:31:35;;;;;;;10.27;6.18;;;11.20;99.90;;;;;;5153347;27;20038;-73
2022/09/26 05:34:06;;;;;;;11.70;6.65;;;11.10;99.90;;;;;;5155160;27;20059;-73
2022/09/26 05:36:32;;;;;;;9.65;6.28;;;11.10;99.90;;;;;;5138761;27;20097;-73
2022/09/26 05:38:58;;;;;;;12.20;6.40;;;11.20;99.90;;;;;;5156799;27;20439;-74
2022/09/26 05:41:29;;;;;;;12.48;6.18;;;11.10;99.90;;;;;;5156743;27;20090;-74
2022/09/26 05:43:55;;;;;;;12.93;7.15;;;11.10;99.90;;;;;;5138105;27;20039;-73
2022/09/26 05:46:21;;;;;;;11.02;6.53;;;11.00;99.90;;;;;;5156643;27;20513;-73
2022/09/26 05:48:46;;;;;;;9.85;6.50;;;11.50;99.90;;;;;;5157410;27;20122;-73
2022/09/26 05:51:14;;;;;;;12.30;6.80;;;11.10;99.90;;;;;;5137766;27;20508;-73
2022/09/26 05:53:42;;;;;;;11.25;6.20;;;11.30;99.90;;;;;;5157057;27;20052;-73
2022/09/26 05:56:09;;;;;;;9.25;5.93;;;11.10;99.90;;;;;;5156700;27;20038;-73
2022/09/26 05:58:37;;;;;;;12.10;6.55;;;11.10;99.90;;;;;;5156966;27;20042;-73
2022/09/26 06:01:08;;;;;;;13.35;6.63;;;11.40;99.90;;;;;;5155918;27;20042;-73
2022/09/26 06:03:35;;;;;;;11.88;6.57;;;11.10;99.90;;;;;;5155376;27;20039;-73
2022/09/26 06:06:09;;;;;;;11.73;6.07;;;11.10;99.90;;;;;;5155432;27;20402;-73
2022/09/26 06:08:36;;;;;;;10.02;6.53;;;11.10;99.90;;;;;;5142586;27;20053;-73
2022/09/26 06:11:07;;;;;;;9.82;5.38;;;11.60;99.90;;;;;;5117125;27;20050;-73
2022/09/26 06:13:35;;;;;;;10.88;5.95;;;11.10;99.90;;;;;;5135607;27;20464;-73
2022/09/26 06:16:04;;;;;;;12.77;6.30;;;11.10;99.90;;;;;;5144908;27;20045;-71
2022/09/26 06:18:32;;;;;;;11.30;4.93;;;11.20;99.90;;;;;;5137747;27;20058;-72
2022/09/26 06:21:01;;;;;;;11.05;5.45;;;11.20;99.90;;;;;;5137453;27;20035;-72
2022/09/26 06:23:26;;;;;;;10.02;5.70;;;11.20;99.90;;;;;;5155237;27;20491;-71
2022/09/26 06:25:52;;;;;;;8.93;4.97;;;11.50;99.90;;;;;;5154216;27;20038;-72
2022/09/26 06:28:18;;;;;;;8.82;5.07;;;11.80;99.90;;;;;;5156187;27;20038;-73
2022/09/26 06:30:43;;;;;;;9.85;5.30;;;11.20;99.90;;;;;;5155688;27;20089;-72
2022/09/26 06:33:10;;;;;;;8.70;4.97;;;11.20;99.90;;;;;;5156264;27;20055;-72
2022/09/26 06:35:35;;;;;;;10.55;5.07;;;11.30;99.90;;;;;;5136975;27;20054;-73
2022/09/26 06:38:01;;;;;;;8.63;4.88;;;11.30;99.90;;;;;;5156040;27;20402;-73
2022/09/26 06:40:27;;;;;;;11.27;5.60;;;11.50;99.90;;;;;;5155492;27;20042;-74
2022/09/26 06:42:54;;;;;;;11.02;5.25;;;11.30;99.90;;;;;;5137152;27;20057;-73
2022/09/26 06:45:20;;;;;;;9.75;5.25;;;11.30;99.90;;;;;;5154987;27;20501;-73
2022/09/26 06:47:46;;;;;;;8.48;5.07;;;11.20;99.90;;;;;;5155447;27;20041;-74
2022/09/26 06:50:11;;;;;;;9.85;4.97;;;12.00;99.90;;;;;;5155874;27;20038;-74
2022/09/26 06:52:37;;;;;;;8.30;5.00;;;11.20;99.90;;;;;;5154072;27;20407;-72
2022/09/26 06:55:05;;;;;;;8.23;5.03;;;11.20;99.90;;;;;;5155408;27;20038;-74
2022/09/26 06:57:39;;;;;;;12.77;5.10;;;11.20;99.90;;;;;;5125666;27;20051;-73
2022/09/26 07:00:14;;;;;;;7.78;4.78;;;11.40;99.90;;;;;;5134107;27;20042;-71
2022/09/26 07:02:51;;;;;;;6.60;4.40;;;11.10;99.90;;;;;;5133912;27;20050;-74
2022/09/26 07:05:17;;;;;;;8.35;5.13;;;11.10;99.90;;;;;;5146686;27;20395;-72
2022/09/26 07:07:44;;;;;;;11.77;5.63;;;11.10;99.90;;;;;;5155436;27;20042;-72
2022/09/26 07:10:10;;;;;;;10.13;5.65;;;11.50;99.90;;;;;;5137047;27;20043;-72
2022/09/26 07:12:39;;;;;;;10.63;5.25;;;12.30;99.90;;;;;;5155195;27;20118;-72
2022/09/26 07:15:06;;;;;;;11.43;5.38;;;11.30;99.90;;;;;;5135992;27;20095;-73
2022/09/26 07:17:32;;;;;;;9.20;4.70;;;11.10;99.90;;;;;;5154871;27;20050;-73
2022/09/26 07:19:58;;;;;;;7.72;5.22;;;11.20;99.90;;;;;;5170094;27;20042;-74
2022/09/26 07:22:23;;;;;;;10.85;5.22;;;11.40;99.90;;;;;;5163959;27;20034;-74
2022/09/26 07:24:49;;;;;;;8.40;4.93;;;11.20;99.90;;;;;;5131424;27;22713;-74
2022/09/26 07:27:16;;;;;;;7.55;4.20;;;12.00;99.90;;;;;;5132296;27;20038;-74
2022/09/26 07:29:46;;;;;;;7.53;4.63;;;11.60;99.90;;;;;;5127973;27;20336;-74
2022/09/26 07:32:12;;;;;;;9.32;4.82;;;11.30;99.90;;;;;;5147035;27;20436;-74
2022/09/26 07:34:39;;;;;;;9.80;4.90;;;11.90;99.90;;;;;;5115195;27;20055;-73
2022/09/26 07:37:06;;;;;;;10.57;4.28;;;11.40;99.90;;;;;;5135812;27;20047;-73
2022/09/26 07:39:32;;;;;;;9.70;4.28;;;11.50;99.90;;;;;;5134907;27;20129;-73
2022/09/26 07:42:00;;;;;;;8.57;4.63;;;11.30;99.90;;;;;;5153296;27;20121;-73
2022/09/26 07:44:26;;;;;;;9.55;4.57;;;11.60;99.90;;;;;;5154976;27;20057;-73
2022/09/26 07:52:21;;;;;;;5.97;3.55;;;11.30;99.90;;;;;;5150770;27;20043;-73
2022/09/26 07:54:47;;;;;;;8.27;3.92;;;11.20;99.90;;;;;;5169540;27;20126;-73
2022/09/26 07:57:13;;;;;;;7.13;3.85;;;11.30;99.90;;;;;;5153061;27;20402;-73
2022/09/26 07:59:39;;;;;;;6.65;3.67;;;11.50;99.90;;;;;;5154264;27;20098;-73
2022/09/26 08:02:17;;;;;;;7.97;3.78;;;11.50;99.90;;;;;;5153625;27;20046;-72
2022/09/26 08:04:43;;;;;;;8.18;3.65;;;12.10;99.90;;;;;;5135633;27;20034;-73
2022/09/26 08:07:09;;;;;;;6.25;3.60;;;11.60;99.90;;;;;;5151669;27;20095;-73
2022/09/26 08:09:35;;;;;;;6.43;3.42;;;11.60;99.90;;;;;;5133261;27;20043;-73
2022/09/26 08:12:01;;;;;;;9.98;3.80;;;11.70;99.90;;;;;;5113209;27;20115;-74
2022/09/26 08:14:27;;;;;;;5.90;3.10;;;11.70;99.90;;;;;;5141606;27;20035;-74
2022/09/26 08:16:55;;;;;;;7.55;3.40;;;12.20;99.90;;;;;;5153938;27;20039;-74
2022/09/26 08:19:21;;;;;;;8.52;3.70;;;11.90;99.90;;;;;;5153863;27;20039;-74
2022/09/26 08:21:48;;;;;;;7.10;3.60;;;11.90;99.90;;;;;;5153367;27;20065;-75
2022/09/26 08:24:13;;;;;;;10.80;3.70;;;12.40;99.90;;;;;;5152862;27;20094;-75
2022/09/26 08:26:39;;;;;;;9.40;3.83;;;11.80;99.90;;;;;;5135047;27;20546;-75
2022/09/26 08:29:11;;;;;;;6.78;3.33;;;11.90;99.90;;;;;;5153455;27;20475;-74
2022/09/26 08:31:40;;;;;;;7.60;3.30;;;12.60;99.90;;;;;;5153532;27;20091;-74
2022/09/26 08:34:06;;;;;;;8.60;3.75;;;12.00;99.90;;;;;;5134694;27;20054;-74
2022/09/26 08:36:35;;;;;;;7.45;3.70;;;13.10;99.90;;;;;;5153320;27;20046;-75
2022/09/26 08:39:02;;;;;;;8.30;3.30;;;12.20;99.90;;;;;;5151955;27;20061;-75
2022/09/26 08:41:39;;;;;;;9.27;3.35;;;12.10;99.90;;;;;;5133822;27;20050;-75
2022/09/26 08:44:21;;;;;;;5.97;3.78;;;12.00;99.90;;;;;;5134953;27;20390;-74
2022/09/26 08:47:03;;;;;;;7.35;3.50;;;12.30;99.90;;;;;;5152875;27;20058;-74
2022/09/26 08:49:49;;;;;;;7.60;3.45;;;12.10;99.90;;;;;;5151795;27;20046;-75
2022/09/26 08:52:25;;;;;;;6.57;3.55;;;12.00;99.90;;;;;;5153211;27;20462;-75
2022/09/26 08:54:54;;;;;;;7.45;3.90;;;12.00;99.90;;;;;;5153377;27;20199;-76
2022/09/26 08:57:37;;;;;;;8.18;3.97;;;12.00;99.90;;;;;;5153380;27;20435;-74
2022/09/26 09:00:09;;;;;;;10.10;3.60;;;12.00;99.90;;;;;;5153006;27;20047;-76
2022/09/26 09:02:50;;;;;;;6.18;3.55;;;12.10;99.90;;;;;;5134481;27;20053;-75
2022/09/26 09:05:18;;;;;;;7.15;3.88;;;12.10;99.90;;;;;;5153634;27;20034;-75
2022/09/26 09:07:52;;;;;;;6.53;4.00;;;11.90;99.90;;;;;;5153285;27;20046;-75
2022/09/26 09:10:23;;;;;;;7.75;3.70;;;12.00;99.90;;;;;;5156681;27;20039;-75
2022/09/26 09:12:58;;;;;;;8.70;4.30;;;12.20;99.90;;;;;;5157507;27;20047;-75
2022/09/26 09:15:35;;;;;;;8.35;3.83;;;12.30;99.90;;;;;;5156194;27;20107;-76
2022/09/26 09:18:26;;;;;;;6.60;3.55;;;12.10;99.90;;;;;;5138704;27;20050;-76
2022/09/26 09:21:32;;;;;;;5.28;3.65;;;12.10;99.90;;;;;;5136453;27;20047;-75
2022/09/26 09:24:16;;;;;;;6.63;3.70;;;12.10;99.90;;;;;;5095129;27;20530;-75
2022/09/26 09:26:51;;;;;;;8.70;3.88;;;12.20;99.90;;;;;;5135743;27;20389;-74
2022/09/26 09:29:58;;;;;;;8.32;3.83;;;12.20;99.90;;;;;;5148296;27;20151;-74
2022/09/26 09:32:40;;;;;;;5.72;3.35;;;12.10;99.90;;;;;;5138362;27;20050;-74
2022/09/26 09:35:12;;;;;;;8.30;3.80;;;12.50;99.90;;;;;;5157179;27;20115;-74
2022/09/26 09:37:47;;;;;;;7.32;3.55;;;12.20;99.90;;;;;;5156914;27;20078;-74
2022/09/26 09:40:27;;;;;;;7.83;3.63;;;13.20;99.90;;;;;;5155660;27;20034;-74
2022/09/26 09:43:16;;;;;;;9.13;3.60;;;12.30;99.90;;;;;;5154090;27;20054;-75
2022/09/26 09:45:51;;;;;;;8.73;4.28;;;12.20;99.90;;;;;;5153632;27;20049;-74
2022/09/26 09:48:17;;;;;;;7.32;3.83;;;12.20;99.90;;;;;;5153337;27;20074;-74
2022/09/26 09:50:54;;;;;;;7.60;3.80;;;12.20;99.90;;;;;;5155277;27;20050;-74
2022/09/26 09:53:56;;;;;;;7.00;3.53;;;13.00;99.90;;;;;;5155625;27;20062;-75
2022/09/26 09:56:25;;;;;;;7.72;3.65;;;12.20;99.90;;;;;;5156268;27;20042;-75
2022/09/26 09:59:09;;;;;;;7.75;4.00;;;12.10;99.90;;;;;;5138174;27;20043;-75
2022/09/26 10:01:41;;;;;;;12.15;3.67;;;12.10;99.90;;;;;;5156040;27;20046;-74
2022/09/26 10:04:28;;;;;;;8.38;3.92;;;12.20;99.90;;;;;;5138144;27;20121;-75
2022/09/26 10:06:54;;;;;;;6.88;4.22;;;12.20;99.90;;;;;;5137738;27;20043;-75
2022/09/26 10:09:28;;;;;;;7.47;4.70;;;12.10;99.90;;;;;;5135653;27;20446;-75
2022/09/26 10:11:55;;;;;;;8.52;4.47;;;12.00;99.90;;;;;;5135264;27;20120;-75
2022/09/26 10:14:29;;;;;;;9.23;4.68;;;12.00;99.90;;;;;;5135886;27;20136;-75
2022/09/26 10:17:10;;;;;;;9.52;4.88;;;12.80;99.90;;;;;;5135365;27;20043;-75
2022/09/26 10:19:37;;;;;;;8.38;4.93;;;11.90;99.90;;;;;;5135081;27;20047;-75
2022/09/26 10:22:28;;;;;;;8.13;4.90;;;11.90;99.90;;;;;;5131687;27;20047;-75
2022/09/26 10:25:22;;;;;;;9.20;5.47;;;11.90;99.90;;;;;;5098768;27;20513;-75
2022/09/26 10:27:54;;;;;;;10.98;5.20;;;11.90;99.90;;;;;;5135836;27;20039;-74
2022/09/26 10:30:30;;;;;;;8.70;5.07;;;12.00;99.90;;;;;;5115125;27;20058;-75
2022/09/26 10:33:00;;;;;;;10.05;5.03;;;12.00;99.90;;;;;;5117074;27;20046;-75
2022/09/26 10:35:43;;;;;;;8.82;5.53;;;12.00;99.90;;;;;;5134903;27;20134;-74
2022/09/26 10:38:26;;;;;;;10.48;5.40;;;12.00;99.90;;;;;;5135040;27;20047;-74
2022/09/26 10:41:00;;;;;;;11.82;5.68;;;11.90;99.90;;;;;;5135127;27;20593;-74
2022/09/26 10:43:31;;;;;;;10.93;5.90;;;11.80;99.90;;;;;;5135341;27;20484;-75
2022/09/26 10:46:10;;;;;;;10.55;5.82;;;12.20;99.90;;;;;;5116357;27;20344;-74
2022/09/26 10:48:50;;;;;;;10.82;6.45;;;11.80;99.90;;;;;;5116491;27;20047;-75
2022/09/26 10:51:43;;;;;;;12.20;6.43;;;11.70;99.90;;;;;;5132451;27;20050;-75
2022/09/26 10:54:17;;;;;;;14.50;6.85;;;11.70;99.90;;;;;;5109146;27;20047;-75
2022/09/26 10:56:48;;;;;;;10.20;6.63;;;11.60;99.90;;;;;;5134080;27;20043;-75
2022/09/26 10:59:16;;;;;;;10.68;6.47;;;11.60;99.90;;;;;;5134945;27;20494;-75
2022/09/26 11:01:50;;;;;;;12.43;6.70;;;11.60;99.90;;;;;;5133765;27;20111;-75
2022/09/26 11:07:09;;;;;;;12.30;6.95;;;11.50;99.90;;;;;;5134570;27;20493;-75
2022/09/26 11:09:37;;;;;;;10.95;7.00;;;11.50;99.90;;;;;;5151189;27;20034;-75
2022/09/26 11:12:22;;;;;;;13.85;6.85;;;12.10;99.90;;;;;;5153066;27;20045;-74
2022/09/26 11:14:57;;;;;;;10.65;6.97;;;11.50;99.90;;;;;;5152377;27;20065;-74
2022/09/26 11:17:43;;;;;;;12.77;7.13;;;11.40;99.90;;;;;;5154198;27;20139;-74
2022/09/26 11:20:19;;;;;;;11.93;6.18;;;11.50;99.90;;;;;;5154078;27;20054;-72
2022/09/26 11:22:52;;;;;;;;;;;11.50;99.90;;;;;;5151993;27;20118;-69
2022/09/26 11:25:28;;;;;;;13.40;7.40;;;11.50;99.90;;;;;;5151851;27;19923;-68
2022/09/26 11:28:11;;;;;;;10.82;7.10;;;12.20;99.90;;;;;;5151898;27;20173;-68
2022/09/26 11:30:46;;;;;;;9.48;6.90;;;11.40;99.90;;;;;;5144179;27;20651;-68
2022/09/26 11:33:17;;;;;;;9.80;6.82;;;11.50;99.90;;;;;;5151810;27;20537;-68
2022/09/26 11:36:15;;;;;;;8.48;6.75;;;11.80;99.90;;;;;;5151163;27;20118;-68
2022/09/26 11:38:49;;;;;;;11.15;7.15;;;11.50;99.90;;;;;;5151264;27;20111;-68
2022/09/26 11:41:40;;;;;;;10.55;6.90;;;11.50;99.90;;;;;;5148714;27;20035;-68
2022/09/26 11:44:28;;;;;;;8.82;6.68;;;11.50;99.90;;;;;;5150833;27;20520;-68
2022/09/26 11:47:05;;;;;;;10.45;6.22;;;11.60;99.90;;;;;;5130018;27;20470;-69
2022/09/26 11:49:48;;;;;;;10.90;6.40;;;11.60;99.90;;;;;;5150724;27;20057;-68
2022/09/26 11:52:45;;;;;;;9.55;6.30;;;11.40;99.90;;;;;;5148502;27;20376;-68
2022/09/26 11:55:14;;;;;;;8.52;6.15;;;11.60;99.90;;;;;;5150763;27;20043;-68
2022/09/26 11:58:19;;;;;;;12.48;6.38;;;11.60;99.90;;;;;;5151049;27;20431;-68
2022/09/26 12:01:15;;;;;;;8.20;5.75;;;11.60;99.90;;;;;;5151199;27;20122;-69
2022/09/26 12:04:10;;;;;;;9.98;5.97;;;11.70;99.90;;;;;;5150300;27;20449;-71
2022/09/26 12:06:51;;;;;;;9.13;6.40;;;11.70;99.90;;;;;;5150751;27;20541;-69
2022/09/26 12:09:28;;;;;;;9.38;6.03;;;11.70;99.90;;;;;;5112345;27;20047;-68
2022/09/26 12:12:14;;;;;;;9.32;5.82;;;11.70;99.90;;;;;;5130125;27;20470;-69
2022/09/26 12:15:31;;;;;;;8.07;5.88;;;11.80;99.90;;;;;;5151223;27;20560;-74
2022/09/26 12:18:17;;;;;;;8.65;5.95;;;11.80;99.90;;;;;;5094432;27;20062;-75
2022/09/26 12:20:46;;;;;;;8.35;6.05;;;12.30;99.90;;;;;;5135441;27;20066;-73
2022/09/26 12:23:40;;;;;;;8.45;5.85;;;11.90;99.90;;;;;;5153313;27;20046;-73
2022/09/26 12:26:30;;;;;;;7.15;5.28;;;11.90;99.90;;;;;;5152892;27;20514;-73
2022/09/26 12:29:22;;;;;;;7.63;5.45;;;11.90;99.90;;;;;;5154273;27;20133;-74
2022/09/26 12:32:20;;;;;;;8.32;5.53;;;11.90;99.90;;;;;;5133162;27;20121;-74
2022/09/26 12:34:46;;;;;;;7.28;5.32;;;11.90;99.90;;;;;;5153007;27;20090;-74
2022/09/26 12:37:40;;;;;;;7.88;5.35;;;11.90;99.90;;;;;;5134719;27;20078;-74
2022/09/26 12:40:09;;;;;;;6.57;5.30;;;11.90;99.90;;;;;;5153255;27;20054;-73
2022/09/26 12:42:40;;;;;;;8.25;5.72;;;11.90;99.90;;;;;;5152568;27;20054;-74
2022/09/26 12:45:27;;;;;;;6.68;5.80;;;12.00;99.90;;;;;;5153589;27;20038;-74
2022/09/26 12:48:31;;;;;;;6.07;4.57;;;12.00;99.90;;;;;;5151310;27;20371;-74
2022/09/26 12:51:28;;;;;;;8.52;6.55;;;12.10;99.90;;;;;;5152663;27;20383;-74
2022/09/26 12:54:28;;;;;;;6.95;5.15;;;12.10;99.90;;;;;;5152772;27;20084;-74
2022/09/26 12:57:20;;;;;;;6.53;4.97;;;12.10;99.90;;;;;;5147634;27;20039;-74
2022/09/26 12:59:51;;;;;;;7.53;5.45;;;12.10;99.90;;;;;;5114418;28;20035;-74
2022/09/26 13:02:49;;;;;;;6.03;4.75;;;12.20;99.90;;;;;;5132563;28;20050;-74
2022/09/26 13:05:27;;;;;;;7.18;5.13;;;12.20;99.90;;;;;;5114360;28;20051;-73
2022/09/26 13:08:17;;;;;;;6.35;5.50;;;12.20;99.90;;;;;;5114518;28;20107;-73
2022/09/26 13:11:09;;;;;;;6.85;4.75;;;12.30;99.90;;;;;;5148324;27;20495;-73
2022/09/26 13:14:11;;;;;;;6.75;4.53;;;13.40;99.90;;;;;;5131824;28;20146;-73
2022/09/26 13:16:42;;;;;;;5.63;4.55;;;12.50;99.90;;;;;;5113735;28;20059;-74
2022/09/26 13:19:27;;;;;;;8.70;4.90;;;12.60;99.90;;;;;;5132706;28;20094;-74
2022/09/26 13:21:55;;;;;;;6.82;4.65;;;12.50;99.90;;;;;;5132545;28;20043;-74
2022/09/26 13:24:30;;;;;;;6.15;4.15;;;12.60;99.90;;;;;;5132677;28;20174;-74
2022/09/26 13:27:19;;;;;;;5.85;4.05;;;12.60;99.90;;;;;;5148069;27;20048;-74
2022/09/26 13:29:52;;;;;;;4.78;3.90;;;12.60;99.90;;;;;;5132595;27;20051;-74